sensor_id;sensor_type;location;lat;lon;timestamp;temperature;humidity
3944;DHT22;1986;52.546;13.428;2023-05-07T00:01:48;8.60;99.90
3944;DHT22;1986;52.546;13.428;2023-05-07T00:04:21;8.60;99.90
3944;DHT22;1986;52.546;13.428;2023-05-07T00:06:49;8.60;99.90
3944;DHT22;1986;52.546;13.428;2023-05-07T00:09:27;8.70;99.90
3944;DHT22;1986;52.546;13.428;2023-05-07T00:11:57;8.60;99.90
3944;DHT22;1986;52.546;13.428;2023-05-07T00:14:28;8.60;99.90
3944;DHT22;1986;52.546;13.428;2023-05-07T00:16:56;8.70;99.90
3944;DHT22;1986;52.546;13.428;2023-05-07T00:19:22;8.70;99.90
3944;DHT22;1986;52.546;13.428;2023-05-07T00:21:50;8.70;99.90
3944;DHT22;1986;52.546;13.428;2023-05-07T00:24:19;8.70;99.90
3944;DHT22;1986;52.546;13.428;2023-05-07T00:26:47;8.70;99.90
3944;DHT22;1986;52.546;13.428;2023-05-07T00:29:15;8.70;99.90
3944;DHT22;1986;52.546;13.428;2023-05-07T00:31:44;8.70;99.90
3944;DHT22;1986;52.546;13.428;2023-05-07T00:34:11;8.70;99.90
3944;DHT22;1986;52.546;13.428;2023-05-07T00:36:39;8.60;99.90
3944;DHT22;1986;52.546;13.428;2023-05-07T00:39:10;8.70;99.90
3944;DHT22;1986;52.546;13.428;2023-05-07T00:41:41;8.60;99.90
3944;DHT22;1986;52.546;13.428;2023-05-07T00:44:19;8.60;99.90
3944;DHT22;1986;52.546;13.428;2023-05-07T00:46:48;8.60;99.90
3944;DHT22;1986;52.546;13.428;2023-05-07T00:49:15;8.50;99.90
3944;DHT22;1986;52.546;13.428;2023-05-07T00:51:47;8.60;99.90
3944;DHT22;1986;52.546;13.428;2023-05-07T00:54:20;8.60;99.90
3944;DHT22;1986;52.546;13.428;2023-05-07T00:57:01;8.60;99.90
3944;DHT22;1986;52.546;13.428;2023-05-07T00:59:30;8.60;99.90
3944;DHT22;1986;52.546;13.428;2023-05-07T01:02:00;8.60;99.90
3944;DHT22;1986;52.546;13.428;2023-05-07T01:04:28;8.60;99.90
3944;DHT22;1986;52.546;13.428;2023-05-07T01:06:55;8.60;99.90
3944;DHT22;1986;52.546;13.428;2023-05-07T01:09:24;8.60;99.90
3944;DHT22;1986;52.546;13.428;2023-05-07T01:11:55;8.70;99.90
3944;DHT22;1986;52.546;13.428;2023-05-07T01:14:23;8.60;99.90
3944;DHT22;1986;52.546;13.428;2023-05-07T01:16:53;8.60;99.90
3944;DHT22;1986;52.546;13.428;2023-05-07T01:19:21;8.60;99.90
3944;DHT22;1986;52.546;13.428;2023-05-07T01:21:50;8.50;99.90
3944;DHT22;1986;52.546;13.428;2023-05-07T01:24:19;8.50;99.90
3944;DHT22;1986;52.546;13.428;2023-05-07T01:26:46;8.50;99.90
3944;DHT22;1986;52.546;13.428;2023-05-07T01:29:20;8.50;99.90
3944;DHT22;1986;52.546;13.428;2023-05-07T01:31:51;8.50;99.90
3944;DHT22;1986;52.546;13.428;2023-05-07T01:34:37;8.50;99.90
3944;DHT22;1986;52.546;13.428;2023-05-07T01:37:04;8.50;99.90
3944;DHT22;1986;52.546;13.428;2023-05-07T01:39:40;8.50;99.90
3944;DHT22;1986;52.546;13.428;2023-05-07T01:42:08;8.50;99.90
3944;DHT22;1986;52.546;13.428;2023-05-07T01:44:37;8.50;99.90
3944;DHT22;1986;52.546;13.428;2023-05-07T01:47:04;8.50;99.90
3944;DHT22;1986;52.546;13.428;2023-05-07T01:49:36;8.50;99.90
3944;DHT22;1986;52.546;13.428;2023-05-07T01:52:06;8.50;99.90
3944;DHT22;1986;52.546;13.428;2023-05-07T01:54:38;8.50;99.90
3944;DHT22;1986;52.546;13.428;2023-05-07T01:57:08;8.60;99.90
3944;DHT22;1986;52.546;13.428;2023-05-07T01:59:35;8.60;99.90
3944;DHT22;1986;52.546;13.428;2023-05-07T02:02:02;8.60;99.90
3944;DHT22;1986;52.546;13.428;2023-05-07T02:04:47;8.60;99.90
3944;DHT22;1986;52.546;13.428;2023-05-07T02:07:14;8.60;99.90
3944;DHT22;1986;52.546;13.428;2023-05-07T02:09:43;8.60;99.90
3944;DHT22;1986;52.546;13.428;2023-05-07T02:12:13;8.60;99.90
3944;DHT22;1986;52.546;13.428;2023-05-07T02:14:46;8.60;99.90
3944;DHT22;1986;52.546;13.428;2023-05-07T02:17:16;8.60;99.90
3944;DHT22;1986;52.546;13.428;2023-05-07T02:19:51;8.60;99.90
3944;DHT22;1986;52.546;13.428;2023-05-07T02:22:22;8.50;99.90
3944;DHT22;1986;52.546;13.428;2023-05-07T02:24:50;8.50;99.90
3944;DHT22;1986;52.546;13.428;2023-05-07T02:27:20;8.60;99.90
3944;DHT22;1986;52.546;13.428;2023-05-07T02:29:47;8.50;99.90
3944;DHT22;1986;52.546;13.428;2023-05-07T02:32:14;8.50;99.90
3944;DHT22;1986;52.546;13.428;2023-05-07T02:34:41;8.60;99.90
3944;DHT22;1986;52.546;13.428;2023-05-07T02:37:11;8.60;99.90
3944;DHT22;1986;52.546;13.428;2023-05-07T02:39:45;8.60;99.90
3944;DHT22;1986;52.546;13.428;2023-05-07T02:42:13;8.50;99.90
3944;DHT22;1986;52.546;13.428;2023-05-07T02:44:40;8.60;99.90
3944;DHT22;1986;52.546;13.428;2023-05-07T02:47:07;8.60;99.90
3944;DHT22;1986;52.546;13.428;2023-05-07T02:49:35;8.50;99.90
3944;DHT22;1986;52.546;13.428;2023-05-07T02:52:05;8.50;99.90
3944;DHT22;1986;52.546;13.428;2023-05-07T02:54:32;8.50;99.90
3944;DHT22;1986;52.546;13.428;2023-05-07T02:56:59;8.50;99.90
3944;DHT22;1986;52.546;13.428;2023-05-07T02:59:27;8.50;99.90
3944;DHT22;1986;52.546;13.428;2023-05-07T03:01:55;8.50;99.90
3944;DHT22;1986;52.546;13.428;2023-05-07T03:04:31;8.50;99.90
3944;DHT22;1986;52.546;13.428;2023-05-07T03:06:58;8.60;99.90
3944;DHT22;1986;52.546;13.428;2023-05-07T03:09:26;8.50;99.90
3944;DHT22;1986;52.546;13.428;2023-05-07T03:11:56;8.60;99.90
3944;DHT22;1986;52.546;13.428;2023-05-07T03:14:24;8.50;99.90
3944;DHT22;1986;52.546;13.428;2023-05-07T03:16:59;8.50;99.90
3944;DHT22;1986;52.546;13.428;2023-05-07T03:19:29;8.50;99.90
3944;DHT22;1986;52.546;13.428;2023-05-07T03:21:56;8.50;99.90
3944;DHT22;1986;52.546;13.428;2023-05-07T03:24:23;8.50;99.90
3944;DHT22;1986;52.546;13.428;2023-05-07T03:26:50;8.50;99.90
3944;DHT22;1986;52.546;13.428;2023-05-07T03:29:17;8.50;99.90
3944;DHT22;1986;52.546;13.428;2023-05-07T03:31:45;8.50;99.90
3944;DHT22;1986;52.546;13.428;2023-05-07T03:34:14;8.50;99.90
3944;DHT22;1986;52.546;13.428;2023-05-07T03:36:48;8.50;99.90
3944;DHT22;1986;52.546;13.428;2023-05-07T03:39:15;8.50;99.90
3944;DHT22;1986;52.546;13.428;2023-05-07T03:41:49;8.40;99.90
3944;DHT22;1986;52.546;13.428;2023-05-07T03:44:18;8.40;99.90
3944;DHT22;1986;52.546;13.428;2023-05-07T03:46:45;8.40;99.90
3944;DHT22;1986;52.546;13.428;2023-05-07T03:49:16;8.40;99.90
3944;DHT22;1986;52.546;13.428;2023-05-07T03:51:52;8.30;99.90
3944;DHT22;1986;52.546;13.428;2023-05-07T03:54:19;8.30;99.90
3944;DHT22;1986;52.546;13.428;2023-05-07T03:56:46;8.40;99.90
3944;DHT22;1986;52.546;13.428;2023-05-07T03:59:13;8.30;99.90
3944;DHT22;1986;52.546;13.428;2023-05-07T04:01:42;8.30;99.90
3944;DHT22;1986;52.546;13.428;2023-05-07T04:04:09;8.30;99.90
3944;DHT22;1986;52.546;13.428;2023-05-07T04:06:38;8.40;99.90
3944;DHT22;1986;52.546;13.428;2023-05-07T04:09:05;8.40;99.90
3944;DHT22;1986;52.546;13.428;2023-05-07T04:11:32;8.40;99.90
3944;DHT22;1986;52.546;13.428;2023-05-07T04:14:00;8.30;99.90
3944;DHT22;1986;52.546;13.428;2023-05-07T04:16:27;8.40;99.90
3944;DHT22;1986;52.546;13.428;2023-05-07T04:18:55;8.40;99.90
3944;DHT22;1986;52.546;13.428;2023-05-07T04:21:22;8.30;99.90
3944;DHT22;1986;52.546;13.428;2023-05-07T04:23:53;8.40;99.90
3944;DHT22;1986;52.546;13.428;2023-05-07T04:26:20;8.40;99.90
3944;DHT22;1986;52.546;13.428;2023-05-07T04:28:48;8.40;99.90
3944;DHT22;1986;52.546;13.428;2023-05-07T04:31:16;8.40;99.90
3944;DHT22;1986;52.546;13.428;2023-05-07T04:33:43;8.30;99.90
3944;DHT22;1986;52.546;13.428;2023-05-07T04:36:10;8.40;99.90
3944;DHT22;1986;52.546;13.428;2023-05-07T04:38:37;8.40;99.90
3944;DHT22;1986;52.546;13.428;2023-05-07T04:41:12;8.40;99.90
3944;DHT22;1986;52.546;13.428;2023-05-07T04:43:48;8.40;99.90
3944;DHT22;1986;52.546;13.428;2023-05-07T04:46:15;8.50;99.90
3944;DHT22;1986;52.546;13.428;2023-05-07T04:48:42;8.50;99.90
3944;DHT22;1986;52.546;13.428;2023-05-07T04:51:12;8.50;99.90
3944;DHT22;1986;52.546;13.428;2023-05-07T04:53:39;8.50;99.90
3944;DHT22;1986;52.546;13.428;2023-05-07T04:56:07;8.40;99.90
3944;DHT22;1986;52.546;13.428;2023-05-07T04:58:35;8.50;99.90
3944;DHT22;1986;52.546;13.428;2023-05-07T05:01:02;8.50;99.90
3944;DHT22;1986;52.546;13.428;2023-05-07T05:03:30;8.50;99.90
3944;DHT22;1986;52.546;13.428;2023-05-07T05:05:57;8.50;99.90
3944;DHT22;1986;52.546;13.428;2023-05-07T05:08:26;8.50;99.90
3944;DHT22;1986;52.546;13.428;2023-05-07T05:10:53;8.60;99.90
3944;DHT22;1986;52.546;13.428;2023-05-07T05:13:20;8.60;99.90
3944;DHT22;1986;52.546;13.428;2023-05-07T05:15:49;8.70;99.90
3944;DHT22;1986;52.546;13.428;2023-05-07T05:18:17;8.80;99.90
3944;DHT22;1986;52.546;13.428;2023-05-07T05:20:44;9.00;99.90
3944;DHT22;1986;52.546;13.428;2023-05-07T05:23:17;8.90;99.90
3944;DHT22;1986;52.546;13.428;2023-05-07T05:25:44;8.80;99.90
3944;DHT22;1986;52.546;13.428;2023-05-07T05:28:11;8.90;99.90
3944;DHT22;1986;52.546;13.428;2023-05-07T05:30:39;8.90;99.90
3944;DHT22;1986;52.546;13.428;2023-05-07T05:33:07;8.90;99.90
3944;DHT22;1986;52.546;13.428;2023-05-07T05:35:34;8.80;99.90
3944;DHT22;1986;52.546;13.428;2023-05-07T05:38:02;8.90;99.90
3944;DHT22;1986;52.546;13.428;2023-05-07T05:40:29;8.80;99.90
3944;DHT22;1986;52.546;13.428;2023-05-07T05:42:56;8.90;99.90
3944;DHT22;1986;52.546;13.428;2023-05-07T05:45:24;9.00;99.90
3944;DHT22;1986;52.546;13.428;2023-05-07T05:47:52;9.20;99.90
3944;DHT22;1986;52.546;13.428;2023-05-07T05:50:20;9.50;99.90
3944;DHT22;1986;52.546;13.428;2023-05-07T05:52:48;9.60;99.90
3944;DHT22;1986;52.546;13.428;2023-05-07T05:55:15;9.30;99.90
3944;DHT22;1986;52.546;13.428;2023-05-07T05:57:42;9.20;99.90
3944;DHT22;1986;52.546;13.428;2023-05-07T06:00:11;9.20;99.90
3944;DHT22;1986;52.546;13.428;2023-05-07T06:02:44;9.20;99.90
3944;DHT22;1986;52.546;13.428;2023-05-07T06:05:12;9.40;99.90
3944;DHT22;1986;52.546;13.428;2023-05-07T06:07:41;9.60;99.90
3944;DHT22;1986;52.546;13.428;2023-05-07T06:10:08;9.50;99.90
3944;DHT22;1986;52.546;13.428;2023-05-07T06:12:35;9.40;99.90
3944;DHT22;1986;52.546;13.428;2023-05-07T06:15:03;9.40;99.90
3944;DHT22;1986;52.546;13.428;2023-05-07T06:17:30;9.50;99.90
3944;DHT22;1986;52.546;13.428;2023-05-07T06:20:00;9.70;99.90
3944;DHT22;1986;52.546;13.428;2023-05-07T06:22:27;9.70;99.90
3944;DHT22;1986;52.546;13.428;2023-05-07T06:25:03;9.80;99.90
3944;DHT22;1986;52.546;13.428;2023-05-07T06:27:33;9.60;99.90
3944;DHT22;1986;52.546;13.428;2023-05-07T06:30:00;9.70;99.90
3944;DHT22;1986;52.546;13.428;2023-05-07T06:32:27;9.70;99.90
3944;DHT22;1986;52.546;13.428;2023-05-07T06:34:53;9.70;99.90
3944;DHT22;1986;52.546;13.428;2023-05-07T06:37:24;9.60;99.90
3944;DHT22;1986;52.546;13.428;2023-05-07T06:39:53;9.60;99.90
3944;DHT22;1986;52.546;13.428;2023-05-07T06:42:21;9.50;99.90
3944;DHT22;1986;52.546;13.428;2023-05-07T06:44:49;9.60;99.90
3944;DHT22;1986;52.546;13.428;2023-05-07T06:47:19;9.50;99.90
3944;DHT22;1986;52.546;13.428;2023-05-07T06:49:50;9.70;99.90
3944;DHT22;1986;52.546;13.428;2023-05-07T06:52:19;9.80;99.90
3944;DHT22;1986;52.546;13.428;2023-05-07T06:54:46;10.00;99.90
3944;DHT22;1986;52.546;13.428;2023-05-07T06:57:13;10.10;99.90
3944;DHT22;1986;52.546;13.428;2023-05-07T06:59:43;10.10;99.90
3944;DHT22;1986;52.546;13.428;2023-05-07T07:02:17;10.00;99.90
3944;DHT22;1986;52.546;13.428;2023-05-07T07:04:48;10.60;99.90
3944;DHT22;1986;52.546;13.428;2023-05-07T07:07:15;10.70;99.90
3944;DHT22;1986;52.546;13.428;2023-05-07T07:09:54;10.80;99.90
3944;DHT22;1986;52.546;13.428;2023-05-07T07:12:21;10.80;99.90
3944;DHT22;1986;52.546;13.428;2023-05-07T07:14:52;11.40;99.90
3944;DHT22;1986;52.546;13.428;2023-05-07T07:17:21;11.20;99.90
3944;DHT22;1986;52.546;13.428;2023-05-07T07:19:48;11.20;99.90
3944;DHT22;1986;52.546;13.428;2023-05-07T07:22:16;11.50;99.90
3944;DHT22;1986;52.546;13.428;2023-05-07T07:24:43;11.60;99.90
3944;DHT22;1986;52.546;13.428;2023-05-07T07:27:11;12.10;99.90
3944;DHT22;1986;52.546;13.428;2023-05-07T07:29:40;12.10;99.90
3944;DHT22;1986;52.546;13.428;2023-05-07T07:32:10;11.80;99.90
3944;DHT22;1986;52.546;13.428;2023-05-07T07:34:41;11.90;99.90
3944;DHT22;1986;52.546;13.428;2023-05-07T07:37:09;12.20;99.90
3944;DHT22;1986;52.546;13.428;2023-05-07T07:39:37;12.00;99.90
3944;DHT22;1986;52.546;13.428;2023-05-07T07:42:05;12.60;99.90
3944;DHT22;1986;52.546;13.428;2023-05-07T07:44:32;13.10;99.90
3944;DHT22;1986;52.546;13.428;2023-05-07T07:46:59;13.20;99.90
3944;DHT22;1986;52.546;13.428;2023-05-07T07:49:29;12.80;99.90
3944;DHT22;1986;52.546;13.428;2023-05-07T07:51:56;12.80;99.90
3944;DHT22;1986;52.546;13.428;2023-05-07T07:54:32;12.60;99.90
3944;DHT22;1986;52.546;13.428;2023-05-07T07:56:59;12.80;99.90
3944;DHT22;1986;52.546;13.428;2023-05-07T07:59:27;13.70;99.90
3944;DHT22;1986;52.546;13.428;2023-05-07T08:01:54;13.30;99.90
3944;DHT22;1986;52.546;13.428;2023-05-07T08:04:22;13.60;99.90
3944;DHT22;1986;52.546;13.428;2023-05-07T08:06:52;13.90;99.90
3944;DHT22;1986;52.546;13.428;2023-05-07T08:09:27;13.40;99.90
3944;DHT22;1986;52.546;13.428;2023-05-07T08:11:54;13.20;99.90
3944;DHT22;1986;52.546;13.428;2023-05-07T08:14:22;13.70;99.90
3944;DHT22;1986;52.546;13.428;2023-05-07T08:16:50;14.50;99.90
3944;DHT22;1986;52.546;13.428;2023-05-07T08:19:26;13.80;99.90
3944;DHT22;1986;52.546;13.428;2023-05-07T08:21:54;13.50;99.90
3944;DHT22;1986;52.546;13.428;2023-05-07T08:24:21;13.80;99.90
3944;DHT22;1986;52.546;13.428;2023-05-07T08:26:48;13.70;99.90
3944;DHT22;1986;52.546;13.428;2023-05-07T08:29:22;13.10;99.90
3944;DHT22;1986;52.546;13.428;2023-05-07T08:31:49;12.50;99.90
3944;DHT22;1986;52.546;13.428;2023-05-07T08:34:17;12.40;99.90
3944;DHT22;1986;52.546;13.428;2023-05-07T08:36:44;12.30;99.90
3944;DHT22;1986;52.546;13.428;2023-05-07T08:39:14;12.30;99.90
3944;DHT22;1986;52.546;13.428;2023-05-07T08:41:44;12.50;99.90
3944;DHT22;1986;52.546;13.428;2023-05-07T08:44:12;12.40;99.90
3944;DHT22;1986;52.546;13.428;2023-05-07T08:46:44;12.90;99.90
3944;DHT22;1986;52.546;13.428;2023-05-07T08:49:15;13.00;99.90
3944;DHT22;1986;52.546;13.428;2023-05-07T08:51:45;12.90;99.90
3944;DHT22;1986;52.546;13.428;2023-05-07T08:54:15;12.60;99.90
3944;DHT22;1986;52.546;13.428;2023-05-07T08:56:43;12.60;99.90
3944;DHT22;1986;52.546;13.428;2023-05-07T08:59:10;12.70;99.90
3944;DHT22;1986;52.546;13.428;2023-05-07T09:01:38;12.80;99.90
3944;DHT22;1986;52.546;13.428;2023-05-07T09:04:06;12.80;99.90
3944;DHT22;1986;52.546;13.428;2023-05-07T09:06:34;13.00;99.90
3944;DHT22;1986;52.546;13.428;2023-05-07T09:09:04;12.90;99.90
3944;DHT22;1986;52.546;13.428;2023-05-07T09:11:45;12.80;99.90
3944;DHT22;1986;52.546;13.428;2023-05-07T09:14:14;12.60;99.90
3944;DHT22;1986;52.546;13.428;2023-05-07T09:16:45;12.80;99.90
3944;DHT22;1986;52.546;13.428;2023-05-07T09:19:22;13.00;99.90
3944;DHT22;1986;52.546;13.428;2023-05-07T09:22:09;13.30;99.90
3944;DHT22;1986;52.546;13.428;2023-05-07T09:24:53;13.00;99.90
3944;DHT22;1986;52.546;13.428;2023-05-07T09:27:21;12.70;99.90
3944;DHT22;1986;52.546;13.428;2023-05-07T09:29:50;12.70;99.90
3944;DHT22;1986;52.546;13.428;2023-05-07T09:32:24;12.50;99.90
3944;DHT22;1986;52.546;13.428;2023-05-07T09:34:55;12.40;99.90
3944;DHT22;1986;52.546;13.428;2023-05-07T09:37:23;12.40;99.90
3944;DHT22;1986;52.546;13.428;2023-05-07T09:39:59;12.50;99.90
3944;DHT22;1986;52.546;13.428;2023-05-07T09:42:34;12.90;99.90
3944;DHT22;1986;52.546;13.428;2023-05-07T09:45:06;12.90;99.90
3944;DHT22;1986;52.546;13.428;2023-05-07T09:47:37;13.00;99.90
3944;DHT22;1986;52.546;13.428;2023-05-07T09:50:08;13.00;99.90
3944;DHT22;1986;52.546;13.428;2023-05-07T09:52:39;13.40;99.90
3944;DHT22;1986;52.546;13.428;2023-05-07T09:55:08;13.20;99.90
3944;DHT22;1986;52.546;13.428;2023-05-07T09:57:38;13.00;99.90
3944;DHT22;1986;52.546;13.428;2023-05-07T10:00:09;13.30;99.90
3944;DHT22;1986;52.546;13.428;2023-05-07T10:02:39;13.00;99.90
3944;DHT22;1986;52.546;13.428;2023-05-07T10:05:19;13.20;99.90
3944;DHT22;1986;52.546;13.428;2023-05-07T10:07:54;13.50;99.90
3944;DHT22;1986;52.546;13.428;2023-05-07T10:10:27;13.80;99.90
3944;DHT22;1986;52.546;13.428;2023-05-07T10:12:57;13.90;99.90
3944;DHT22;1986;52.546;13.428;2023-05-07T10:15:26;14.20;99.90
3944;DHT22;1986;52.546;13.428;2023-05-07T10:17:58;14.30;99.90
3944;DHT22;1986;52.546;13.428;2023-05-07T10:20:27;13.50;99.90
3944;DHT22;1986;52.546;13.428;2023-05-07T10:22:56;13.70;99.90
3944;DHT22;1986;52.546;13.428;2023-05-07T10:25:28;13.90;99.90
3944;DHT22;1986;52.546;13.428;2023-05-07T10:28:01;13.70;99.90
3944;DHT22;1986;52.546;13.428;2023-05-07T10:30:38;13.50;99.90
3944;DHT22;1986;52.546;13.428;2023-05-07T10:33:07;13.30;99.90
3944;DHT22;1986;52.546;13.428;2023-05-07T10:35:38;13.50;99.90
3944;DHT22;1986;52.546;13.428;2023-05-07T10:38:06;13.70;99.90
3944;DHT22;1986;52.546;13.428;2023-05-07T10:40:33;13.60;99.90
3944;DHT22;1986;52.546;13.428;2023-05-07T10:43:05;13.60;99.90
3944;DHT22;1986;52.546;13.428;2023-05-07T10:45:32;13.50;99.90
3944;DHT22;1986;52.546;13.428;2023-05-07T10:48:06;13.60;99.90
3944;DHT22;1986;52.546;13.428;2023-05-07T10:50:34;13.40;99.90
3944;DHT22;1986;52.546;13.428;2023-05-07T10:53:22;13.30;99.90
3944;DHT22;1986;52.546;13.428;2023-05-07T10:56:24;13.20;99.90
3944;DHT22;1986;52.546;13.428;2023-05-07T10:58:53;13.60;99.90
3944;DHT22;1986;52.546;13.428;2023-05-07T11:01:50;13.70;99.90
3944;DHT22;1986;52.546;13.428;2023-05-07T11:04:17;13.80;99.90
3944;DHT22;1986;52.546;13.428;2023-05-07T11:07:21;13.50;99.90
3944;DHT22;1986;52.546;13.428;2023-05-07T11:10:01;13.70;99.90
3944;DHT22;1986;52.546;13.428;2023-05-07T11:12:49;14.00;99.90
3944;DHT22;1986;52.546;13.428;2023-05-07T11:15:36;14.10;99.90
3944;DHT22;1986;52.546;13.428;2023-05-07T11:18:04;14.10;99.90
3944;DHT22;1986;52.546;13.428;2023-05-07T11:20:54;14.00;99.90
3944;DHT22;1986;52.546;13.428;2023-05-07T11:23:56;14.20;99.90
3944;DHT22;1986;52.546;13.428;2023-05-07T11:26:29;14.70;99.90
3944;DHT22;1986;52.546;13.428;2023-05-07T11:28:57;14.50;99.90
3944;DHT22;1986;52.546;13.428;2023-05-07T11:31:30;14.40;99.90
3944;DHT22;1986;52.546;13.428;2023-05-07T11:33:57;14.50;99.90
3944;DHT22;1986;52.546;13.428;2023-05-07T11:36:31;14.90;99.90
3944;DHT22;1986;52.546;13.428;2023-05-07T11:38:58;14.90;99.90
3944;DHT22;1986;52.546;13.428;2023-05-07T11:41:33;14.80;99.90
3944;DHT22;1986;52.546;13.428;2023-05-07T11:44:01;14.80;99.90
3944;DHT22;1986;52.546;13.428;2023-05-07T11:46:35;14.60;99.90
3944;DHT22;1986;52.546;13.428;2023-05-07T11:49:02;15.00;99.90
3944;DHT22;1986;52.546;13.428;2023-05-07T11:51:29;14.70;99.90
3944;DHT22;1986;52.546;13.428;2023-05-07T11:53:57;14.70;99.90
3944;DHT22;1986;52.546;13.428;2023-05-07T11:56:24;14.50;99.90
3944;DHT22;1986;52.546;13.428;2023-05-07T11:58:53;14.50;99.90
3944;DHT22;1986;52.546;13.428;2023-05-07T12:01:22;14.90;99.90
3944;DHT22;1986;52.546;13.428;2023-05-07T12:03:50;15.20;99.90
3944;DHT22;1986;52.546;13.428;2023-05-07T12:06:17;15.00;99.90
3944;DHT22;1986;52.546;13.428;2023-05-07T12:08:45;15.10;99.90
3944;DHT22;1986;52.546;13.428;2023-05-07T12:11:14;15.20;99.90
3944;DHT22;1986;52.546;13.428;2023-05-07T12:13:43;15.20;99.90
3944;DHT22;1986;52.546;13.428;2023-05-07T12:16:10;15.50;99.90
3944;DHT22;1986;52.546;13.428;2023-05-07T12:18:39;14.90;99.90
3944;DHT22;1986;52.546;13.428;2023-05-07T12:21:09;15.00;99.90
3944;DHT22;1986;52.546;13.428;2023-05-07T12:23:38;15.10;99.90
3944;DHT22;1986;52.546;13.428;2023-05-07T12:26:05;14.80;99.90
3944;DHT22;1986;52.546;13.428;2023-05-07T12:28:37;14.60;99.90
3944;DHT22;1986;52.546;13.428;2023-05-07T12:31:05;14.70;99.90
3944;DHT22;1986;52.546;13.428;2023-05-07T12:33:36;14.90;99.90
3944;DHT22;1986;52.546;13.428;2023-05-07T12:36:05;14.90;99.90
3944;DHT22;1986;52.546;13.428;2023-05-07T12:38:37;15.00;99.90
3944;DHT22;1986;52.546;13.428;2023-05-07T12:41:06;14.90;99.90
3944;DHT22;1986;52.546;13.428;2023-05-07T12:43:34;15.00;99.90
3944;DHT22;1986;52.546;13.428;2023-05-07T12:46:05;14.80;99.90
3944;DHT22;1986;52.546;13.428;2023-05-07T12:48:33;15.00;99.90
3944;DHT22;1986;52.546;13.428;2023-05-07T12:51:02;15.20;99.90
3944;DHT22;1986;52.546;13.428;2023-05-07T12:53:30;15.10;99.90
3944;DHT22;1986;52.546;13.428;2023-05-07T12:55:59;15.20;99.90
3944;DHT22;1986;52.546;13.428;2023-05-07T12:58:29;15.20;99.90
3944;DHT22;1986;52.546;13.428;2023-05-07T13:00:58;15.40;99.90
3944;DHT22;1986;52.546;13.428;2023-05-07T13:03:27;15.40;99.90
3944;DHT22;1986;52.546;13.428;2023-05-07T13:05:57;15.20;99.90
3944;DHT22;1986;52.546;13.428;2023-05-07T13:08:29;15.10;99.90
3944;DHT22;1986;52.546;13.428;2023-05-07T13:10:58;15.30;99.90
3944;DHT22;1986;52.546;13.428;2023-05-07T13:13:30;15.30;99.90
3944;DHT22;1986;52.546;13.428;2023-05-07T13:15:57;15.20;99.90
3944;DHT22;1986;52.546;13.428;2023-05-07T13:18:25;15.10;99.90
3944;DHT22;1986;52.546;13.428;2023-05-07T13:20:52;15.00;99.90
3944;DHT22;1986;52.546;13.428;2023-05-07T13:23:20;15.00;99.90
3944;DHT22;1986;52.546;13.428;2023-05-07T13:25:48;15.00;99.90
3944;DHT22;1986;52.546;13.428;2023-05-07T13:28:17;15.00;99.90
3944;DHT22;1986;52.546;13.428;2023-05-07T13:30:44;15.30;99.80
3944;DHT22;1986;52.546;13.428;2023-05-07T13:33:15;15.60;99.00
3944;DHT22;1986;52.546;13.428;2023-05-07T13:35:42;15.60;96.60
3944;DHT22;1986;52.546;13.428;2023-05-07T13:38:10;15.50;96.90
3944;DHT22;1986;52.546;13.428;2023-05-07T13:40:38;15.60;97.90
3944;DHT22;1986;52.546;13.428;2023-05-07T13:43:06;15.40;97.50
3944;DHT22;1986;52.546;13.428;2023-05-07T13:45:35;15.40;97.50
3944;DHT22;1986;52.546;13.428;2023-05-07T13:48:02;15.70;97.50
3944;DHT22;1986;52.546;13.428;2023-05-07T13:50:29;15.70;97.60
3944;DHT22;1986;52.546;13.428;2023-05-07T13:52:56;15.70;96.90
3944;DHT22;1986;52.546;13.428;2023-05-07T13:55:24;15.90;97.30
3944;DHT22;1986;52.546;13.428;2023-05-07T13:57:55;15.60;96.40
3944;DHT22;1986;52.546;13.428;2023-05-07T14:00:24;15.50;97.20
3944;DHT22;1986;52.546;13.428;2023-05-07T14:02:53;15.50;97.40
3944;DHT22;1986;52.546;13.428;2023-05-07T14:05:20;15.40;97.90
3944;DHT22;1986;52.546;13.428;2023-05-07T14:07:48;15.40;98.00
3944;DHT22;1986;52.546;13.428;2023-05-07T14:10:17;15.50;97.80
3944;DHT22;1986;52.546;13.428;2023-05-07T14:12:46;15.40;98.00
3944;DHT22;1986;52.546;13.428;2023-05-07T14:15:13;15.60;97.90
3944;DHT22;1986;52.546;13.428;2023-05-07T14:17:40;15.60;97.20
3944;DHT22;1986;52.546;13.428;2023-05-07T14:20:09;16.00;97.80
3944;DHT22;1986;52.546;13.428;2023-05-07T14:22:37;15.70;95.50
3944;DHT22;1986;52.546;13.428;2023-05-07T14:25:06;16.00;96.60
3944;DHT22;1986;52.546;13.428;2023-05-07T14:27:35;15.90;96.40
3944;DHT22;1986;52.546;13.428;2023-05-07T14:30:03;16.10;95.70
3944;DHT22;1986;52.546;13.428;2023-05-07T14:32:30;16.20;95.60
3944;DHT22;1986;52.546;13.428;2023-05-07T14:35:00;16.10;96.30
3944;DHT22;1986;52.546;13.428;2023-05-07T14:37:28;16.20;96.20
3944;DHT22;1986;52.546;13.428;2023-05-07T14:39:55;15.80;94.90
3944;DHT22;1986;52.546;13.428;2023-05-07T14:42:22;15.90;96.20
3944;DHT22;1986;52.546;13.428;2023-05-07T14:44:51;16.20;96.40
3944;DHT22;1986;52.546;13.428;2023-05-07T14:47:18;16.30;96.20
3944;DHT22;1986;52.546;13.428;2023-05-07T14:50:01;16.10;96.20
3944;DHT22;1986;52.546;13.428;2023-05-07T14:52:30;15.60;96.30
3944;DHT22;1986;52.546;13.428;2023-05-07T14:54:57;15.70;97.70
3944;DHT22;1986;52.546;13.428;2023-05-07T14:57:24;15.60;97.20
3944;DHT22;1986;52.546;13.428;2023-05-07T14:59:51;15.60;97.60
3944;DHT22;1986;52.546;13.428;2023-05-07T15:02:18;15.60;97.70
3944;DHT22;1986;52.546;13.428;2023-05-07T15:04:45;15.60;97.50
3944;DHT22;1986;52.546;13.428;2023-05-07T15:07:13;15.60;97.80
3944;DHT22;1986;52.546;13.428;2023-05-07T15:09:42;15.60;98.20
3944;DHT22;1986;52.546;13.428;2023-05-07T15:12:09;15.50;97.60
3944;DHT22;1986;52.546;13.428;2023-05-07T15:14:37;15.50;97.80
3944;DHT22;1986;52.546;13.428;2023-05-07T15:17:04;15.60;97.80
3944;DHT22;1986;52.546;13.428;2023-05-07T15:19:31;15.40;96.50
3944;DHT22;1986;52.546;13.428;2023-05-07T15:21:59;15.40;96.80
3944;DHT22;1986;52.546;13.428;2023-05-07T15:24:28;15.40;96.70
3944;DHT22;1986;52.546;13.428;2023-05-07T15:26:58;15.30;96.50
3944;DHT22;1986;52.546;13.428;2023-05-07T15:29:26;15.40;97.40
3944;DHT22;1986;52.546;13.428;2023-05-07T15:31:53;15.70;97.20
3944;DHT22;1986;52.546;13.428;2023-05-07T15:34:21;15.50;95.90
3944;DHT22;1986;52.546;13.428;2023-05-07T15:36:50;15.60;96.70
3944;DHT22;1986;52.546;13.428;2023-05-07T15:39:17;15.50;96.60
3944;DHT22;1986;52.546;13.428;2023-05-07T15:41:44;15.70;97.10
3944;DHT22;1986;52.546;13.428;2023-05-07T15:44:12;15.50;96.50
3944;DHT22;1986;52.546;13.428;2023-05-07T15:46:39;15.30;96.40
3944;DHT22;1986;52.546;13.428;2023-05-07T15:49:06;15.10;96.70
3944;DHT22;1986;52.546;13.428;2023-05-07T15:51:35;15.00;96.90
3944;DHT22;1986;52.546;13.428;2023-05-07T15:54:02;15.10;96.90
3944;DHT22;1986;52.546;13.428;2023-05-07T15:56:30;15.20;96.70
3944;DHT22;1986;52.546;13.428;2023-05-07T15:59:00;15.30;96.40
3944;DHT22;1986;52.546;13.428;2023-05-07T16:01:31;15.30;96.50
3944;DHT22;1986;52.546;13.428;2023-05-07T16:03:58;15.30;97.00
3944;DHT22;1986;52.546;13.428;2023-05-07T16:06:25;15.40;97.40
3944;DHT22;1986;52.546;13.428;2023-05-07T16:08:52;15.60;97.80